Time;durP1;ratioP1;P1;durP2;ratioP2;P2;SDS_P1;SDS_P2;PMS_P1;PMS_P2;Temp;Humidity;BMP_temperature;BMP_pressure;BME280_temperature;BME280_humidity;BME280_pressure;Samples;Min_cycle;Max_cycle;Signal;HPM_P1;HPM_P2
2022/09/22 00:01:10;;;;;;;5.80;3.83;;;18.20;99.90;;;;;;4589693;19;20489;-35
2022/09/22 00:02:43;;;;;;;6.18;3.95;;;18.20;99.90;;;;;;4589294;19;20354;-35
2022/09/22 00:04:14;;;;;;;5.53;3.55;;;18.20;99.90;;;;;;4589900;19;20003;-35
2022/09/22 00:05:45;;;;;;;5.03;3.88;;;18.10;99.90;;;;;;4590326;19;20006;-35
2022/09/22 00:07:17;;;;;;;6.72;4.00;;;18.20;99.90;;;;;;4589656;19;20007;-35
2022/09/22 00:08:50;;;;;;;;;;;18.20;99.90;;;;;;4589763;19;20078;-35
2022/09/22 00:10:21;;;;;;;6.68;3.85;;;18.20;99.90;;;;;;4588628;19;19918;-35
2022/09/22 00:11:53;;;;;;;5.38;4.10;;;18.20;99.90;;;;;;4589751;19;20009;-35
2022/09/22 00:13:24;;;;;;;5.80;3.92;;;18.20;99.90;;;;;;4588610;19;20015;-35
2022/09/22 00:14:55;;;;;;;6.85;3.90;;;18.20;99.90;;;;;;4589313;19;20018;-35
2022/09/22 00:16:31;;;;;;;5.78;4.20;;;18.10;99.90;;;;;;4593669;19;20022;-36
2022/09/22 00:18:02;;;;;;;5.78;4.03;;;18.20;99.90;;;;;;4594679;19;20011;-35
2022/09/22 00:19:35;;;;;;;5.50;3.75;;;18.20;99.90;;;;;;4593842;19;20011;-36
2022/09/22 00:21:08;;;;;;;5.18;3.28;;;18.20;99.90;;;;;;4592614;19;20016;-35
2022/09/22 00:22:39;;;;;;;5.57;3.85;;;18.10;99.90;;;;;;4593676;19;20453;-36
2022/09/22 00:24:11;;;;;;;6.60;3.65;;;18.10;99.90;;;;;;4594417;19;20035;-35
2022/09/22 00:25:42;;;;;;;;;;;18.10;99.90;;;;;;4593458;19;20131;-35
2022/09/22 00:27:14;;;;;;;6.27;3.13;;;18.10;99.90;;;;;;4593073;19;19926;-35
2022/09/22 00:28:46;;;;;;;5.18;3.67;;;18.10;99.90;;;;;;4592686;19;21028;-35
2022/09/22 00:30:17;;;;;;;5.50;3.40;;;18.10;99.90;;;;;;4593751;19;20018;-35
2022/09/22 00:31:48;;;;;;;4.15;3.25;;;18.10;99.90;;;;;;4593278;19;20418;-35
2022/09/22 00:33:19;;;;;;;5.95;3.90;;;18.10;99.90;;;;;;4592631;19;20007;-36
2022/09/22 00:34:51;;;;;;;5.18;3.90;;;18.10;99.90;;;;;;4592863;19;20006;-35
2022/09/22 00:36:24;;;;;;;;;;;18.10;99.90;;;;;;4593887;19;20022;-35
2022/09/22 00:37:55;;;;;;;6.60;3.97;;;18.10;99.90;;;;;;4592231;19;19918;-35
2022/09/22 00:39:29;;;;;;;6.88;4.18;;;18.10;99.90;;;;;;4592633;19;20010;-36
2022/09/22 00:41:01;;;;;;;5.72;4.03;;;18.20;99.90;;;;;;4590848;19;20011;-35
2022/09/22 00:42:32;;;;;;;5.22;3.92;;;18.10;99.90;;;;;;4591662;19;20010;-36
2022/09/22 00:44:25;;;;;;;6.93;4.00;;;18.10;99.90;;;;;;4592899;19;20015;-35
2022/09/22 00:46:09;;;;;;;5.10;3.40;;;18.10;99.90;;;;;;4593374;19;20017;-36
2022/09/22 00:47:42;;;;;;;5.40;3.53;;;18.10;99.90;;;;;;4592532;19;20024;-35
2022/09/22 00:49:13;;;;;;;5.43;3.60;;;18.10;99.90;;;;;;4592223;19;20013;-36
2022/09/22 00:50:44;;;;;;;4.88;3.30;;;18.10;99.90;;;;;;4592183;19;20006;-36
2022/09/22 00:52:38;;;;;;;5.38;3.33;;;18.10;99.90;;;;;;4592457;19;20007;-35
2022/09/22 00:54:11;;;;;;;4.20;2.90;;;18.10;99.90;;;;;;4592866;19;20054;-36
2022/09/22 00:55:46;;;;;;;5.03;3.30;;;18.10;99.90;;;;;;4592746;19;20037;-35
2022/09/22 00:57:20;;;;;;;5.30;3.42;;;18.10;99.90;;;;;;4592800;19;20015;-36
2022/09/22 00:58:53;;;;;;;4.68;2.95;;;18.10;99.90;;;;;;4591517;19;20011;-35
2022/09/22 01:00:25;;;;;;;5.65;3.10;;;18.10;99.90;;;;;;4592254;19;20046;-35
2022/09/22 01:01:56;;;;;;;6.22;3.53;;;18.10;99.90;;;;;;4592739;19;20488;-36
2022/09/22 01:03:28;;;;;;;5.55;3.33;;;18.10;99.90;;;;;;4591830;19;20007;-35
2022/09/22 01:04:59;;;;;;;4.55;3.25;;;18.10;99.90;;;;;;4591608;19;20018;-35
2022/09/22 01:06:30;;;;;;;5.88;3.60;;;18.10;99.90;;;;;;4591673;19;20014;-36
2022/09/22 01:08:01;;;;;;;4.90;3.08;;;18.10;99.90;;;;;;4591814;19;20018;-35
2022/09/22 01:09:33;;;;;;;4.47;2.88;;;18.10;99.90;;;;;;4590110;19;20496;-36
2022/09/22 01:11:05;;;;;;;5.13;3.03;;;18.10;99.90;;;;;;4592152;19;20090;-35
2022/09/22 01:12:37;;;;;;;6.22;3.20;;;18.10;99.90;;;;;;4592838;19;20346;-35
2022/09/22 01:14:26;;;;;;;5.50;3.15;;;18.10;99.90;;;;;;4590598;19;20006;-35
2022/09/22 01:16:19;;;;;;;4.70;2.85;;;18.10;99.90;;;;;;4591474;19;20368;-36
2022/09/22 01:18:09;;;;;;;6.30;3.40;;;18.10;99.90;;;;;;4591384;19;20014;-36
2022/09/22 01:19:49;;;;;;;4.13;2.70;;;18.10;99.90;;;;;;4591486;19;20099;-36
2022/09/22 01:21:37;;;;;;;4.90;3.15;;;18.10;99.90;;;;;;4592428;19;20011;-35
2022/09/22 01:23:24;;;;;;;5.40;3.10;;;18.10;99.90;;;;;;4591548;19;20018;-35
2022/09/22 01:25:10;;;;;;;4.57;2.80;;;18.10;99.90;;;;;;4592667;19;20038;-36
2022/09/22 01:26:56;;;;;;;4.90;2.90;;;18.10;99.90;;;;;;4593026;19;20022;-35
2022/09/22 01:28:51;;;;;;;5.97;3.13;;;18.10;99.90;;;;;;4590331;19;20006;-36
2022/09/22 01:30:31;;;;;;;4.63;2.78;;;18.10;99.90;;;;;;4591502;19;20013;-35
2022/09/22 01:32:25;;;;;;;4.30;2.60;;;18.10;99.90;;;;;;4591265;19;20059;-35
2022/09/22 01:34:14;;;;;;;4.47;2.80;;;18.10;99.90;;;;;;4590050;19;20013;-35
2022/09/22 01:35:59;;;;;;;3.90;2.50;;;18.10;99.90;;;;;;4589969;19;20034;-35
2022/09/22 01:37:53;;;;;;;5.07;3.10;;;18.10;99.90;;;;;;4590495;19;20013;-36
2022/09/22 01:39:54;;;;;;;4.82;3.00;;;18.10;99.90;;;;;;4589889;19;20062;-35
2022/09/22 01:41:37;;;;;;;5.28;3.33;;;18.10;99.90;;;;;;4589867;19;20470;-35
2022/09/22 01:43:21;;;;;;;7.75;4.78;;;18.10;99.90;;;;;;4590275;19;20069;-36
2022/09/22 01:45:02;;;;;;;9.00;5.50;;;18.10;99.90;;;;;;4589726;19;20014;-35
2022/09/22 01:46:35;;;;;;;9.20;4.88;;;18.10;99.90;;;;;;4589690;19;20015;-36
2022/09/22 01:48:16;;;;;;;7.25;3.63;;;18.10;99.90;;;;;;4590011;19;20457;-36
2022/09/22 01:49:59;;;;;;;6.57;4.45;;;18.10;99.90;;;;;;4590296;19;20013;-35
2022/09/22 01:51:38;;;;;;;6.93;4.15;;;18.10;99.90;;;;;;4589604;19;19994;-35
2022/09/22 01:53:12;;;;;;;6.07;3.75;;;18.10;99.90;;;;;;4589473;19;20011;-36
2022/09/22 01:54:45;;;;;;;5.82;3.17;;;18.10;99.90;;;;;;4589575;19;20036;-36
2022/09/22 01:56:17;;;;;;;5.57;3.17;;;18.10;99.90;;;;;;4589479;19;20363;-36
2022/09/22 01:57:52;;;;;;;6.28;3.15;;;18.10;99.90;;;;;;4589494;19;20007;-35
2022/09/22 01:59:25;;;;;;;4.75;3.10;;;18.10;99.90;;;;;;4589485;19;20101;-36
2022/09/22 02:00:59;;;;;;;5.93;3.38;;;18.10;99.90;;;;;;4589471;19;20052;-36
2022/09/22 02:02:36;;;;;;;6.53;3.90;;;18.10;99.90;;;;;;4589659;19;20044;-35
2022/09/22 02:04:34;;;;;;;4.53;3.08;;;18.10;99.90;;;;;;4590210;19;20006;-35
2022/09/22 02:06:11;;;;;;;5.15;3.25;;;18.10;99.90;;;;;;4589456;19;20469;-36
2022/09/22 02:07:45;;;;;;;5.28;3.20;;;18.10;99.90;;;;;;4589518;19;20011;-35
2022/09/22 02:09:17;;;;;;;5.05;2.92;;;18.10;99.90;;;;;;4588452;19;20010;-36
2022/09/22 02:10:48;;;;;;;4.57;2.88;;;18.10;99.90;;;;;;4589230;19;20367;-35
2022/09/22 02:12:20;;;;;;;7.88;3.42;;;18.10;99.90;;;;;;4589424;19;20017;-35
2022/09/22 02:13:51;;;;;;;7.28;3.50;;;18.10;99.90;;;;;;4588318;19;20014;-36
2022/09/22 02:17:13;;;;;;;4.45;2.55;;;18.10;99.90;;;;;;4589774;19;20002;-35
2022/09/22 02:18:54;;;;;;;3.75;2.40;;;18.10;99.90;;;;;;4589815;19;20472;-35
2022/09/22 02:20:25;;;;;;;;;;;18.10;99.90;;;;;;4591112;19;20015;-36
2022/09/22 02:21:57;;;;;;;3.53;2.22;;;18.10;99.90;;;;;;4591201;19;20302;-35
2022/09/22 02:23:28;;;;;;;5.90;2.72;;;18.10;99.90;;;;;;4590578;19;20011;-35
2022/09/22 02:24:59;;;;;;;3.83;2.65;;;18.10;99.90;;;;;;4590260;19;20042;-35
2022/09/22 02:26:32;;;;;;;4.47;2.50;;;18.10;99.90;;;;;;4590854;19;20513;-35
2022/09/22 02:28:03;;;;;;;3.85;2.55;;;18.10;99.90;;;;;;4589823;19;20010;-35
2022/09/22 02:29:40;;;;;;;5.03;2.20;;;18.10;99.90;;;;;;4589507;19;20341;-35
2022/09/22 02:31:12;;;;;;;4.13;2.40;;;18.00;99.90;;;;;;4590489;19;20039;-35
2022/09/22 02:32:45;;;;;;;3.17;2.28;;;18.00;99.90;;;;;;4589786;19;20528;-35
2022/09/22 02:34:17;;;;;;;5.28;3.03;;;18.00;99.90;;;;;;4589950;19;20024;-35
2022/09/22 02:35:53;;;;;;;3.53;2.10;;;18.00;99.90;;;;;;4590982;19;20011;-35
2022/09/22 02:37:46;;;;;;;4.13;2.72;;;18.00;99.90;;;;;;4591500;19;20008;-36
2022/09/22 02:39:48;;;;;;;4.72;3.03;;;18.00;99.90;;;;;;4589555;19;20087;-36
2022/09/22 02:41:42;;;;;;;5.47;3.90;;;18.00;99.90;;;;;;4590103;19;20031;-35
2022/09/22 02:43:34;;;;;;;7.80;5.07;;;18.10;99.90;;;;;;4588563;19;20423;-36
2022/09/22 02:45:11;;;;;;;7.65;5.15;;;18.00;99.90;;;;;;4588403;19;20033;-35
2022/09/22 02:46:45;;;;;;;6.75;4.65;;;18.10;99.90;;;;;;4588431;19;20093;-36
2022/09/22 02:48:22;;;;;;;6.57;4.35;;;18.10;99.90;;;;;;4588458;19;20018;-35
2022/09/22 02:49:54;;;;;;;6.20;4.25;;;18.00;99.90;;;;;;4588613;19;20006;-36
2022/09/22 02:51:26;;;;;;;7.30;3.92;;;18.00;99.90;;;;;;4588310;19;20015;-36
2022/09/22 02:53:01;;;;;;;6.13;4.10;;;18.00;99.90;;;;;;4588795;19;20048;-35
2022/09/22 02:54:33;;;;;;;6.03;4.10;;;18.10;99.90;;;;;;4587965;19;20039;-35
2022/09/22 02:56:04;;;;;;;7.65;4.68;;;18.00;99.90;;;;;;4588618;19;19998;-35
2022/09/22 02:57:35;;;;;;;6.68;4.63;;;18.00;99.90;;;;;;4588159;19;20121;-35
2022/09/22 02:59:08;;;;;;;5.78;3.78;;;18.10;99.90;;;;;;4588666;19;20006;-35
2022/09/22 03:00:39;;;;;;;5.72;3.80;;;18.00;99.90;;;;;;4588442;19;20395;-36
2022/09/22 03:02:10;;;;;;;6.68;4.55;;;18.00;99.90;;;;;;4588105;19;20007;-36
2022/09/22 03:03:41;;;;;;;5.25;3.50;;;18.00;99.90;;;;;;4588128;19;20014;-35
2022/09/22 03:05:12;;;;;;;5.90;3.55;;;18.00;99.90;;;;;;4588628;19;20010;-36
2022/09/22 03:06:43;;;;;;;6.13;3.40;;;18.00;99.90;;;;;;4588106;19;20025;-36
2022/09/22 03:08:14;;;;;;;5.18;3.30;;;18.00;99.90;;;;;;4588104;19;20535;-35
2022/09/22 03:09:46;;;;;;;4.63;3.00;;;18.00;99.90;;;;;;4587403;19;20014;-35
2022/09/22 03:11:17;;;;;;;4.10;2.38;;;18.00;99.90;;;;;;4588549;19;20006;-35
2022/09/22 03:12:48;;;;;;;4.43;2.75;;;18.00;99.90;;;;;;4588296;19;20078;-36
2022/09/22 03:14:19;;;;;;;3.47;2.28;;;18.00;99.90;;;;;;4588086;19;20036;-35
2022/09/22 03:15:50;;;;;;;4.18;2.47;;;18.00;99.90;;;;;;4588168;19;20010;-36
2022/09/22 03:17:21;;;;;;;4.45;2.30;;;18.00;99.90;;;;;;4588521;19;20006;-36
2022/09/22 03:18:53;;;;;;;4.40;2.35;;;18.00;99.90;;;;;;4587872;19;20058;-36
2022/09/22 03:20:24;;;;;;;4.38;2.50;;;18.00;99.90;;;;;;4588073;19;20060;-35
2022/09/22 03:21:55;;;;;;;4.90;2.70;;;18.00;99.90;;;;;;4588202;19;20018;-35
2022/09/22 03:23:26;;;;;;;4.70;2.20;;;18.00;99.90;;;;;;4588191;19;20472;-35
2022/09/22 03:24:57;;;;;;;3.85;2.35;;;18.00;99.90;;;;;;4587990;19;20014;-35
2022/09/22 03:26:28;;;;;;;3.35;2.35;;;18.00;99.90;;;;;;4587956;19;20031;-36
2022/09/22 03:27:59;;;;;;;3.63;2.08;;;18.00;99.90;;;;;;4588046;19;20338;-35
2022/09/22 03:29:31;;;;;;;3.08;2.05;;;18.00;99.90;;;;;;4587025;19;20015;-36
2022/09/22 03:31:02;;;;;;;3.00;2.00;;;18.00;99.90;;;;;;4587898;19;20077;-36
2022/09/22 03:32:33;;;;;;;3.13;2.15;;;18.00;99.90;;;;;;4589577;19;20010;-35
2022/09/22 03:34:04;;;;;;;;;;;18.00;99.90;;;;;;4591730;19;20018;-36
2022/09/22 03:35:35;;;;;;;2.95;1.95;;;18.00;99.90;;;;;;4590259;19;19915;-35
2022/09/22 03:37:06;;;;;;;4.43;2.03;;;18.00;99.90;;;;;;4590217;19;20046;-35
2022/09/22 03:38:37;;;;;;;5.35;2.20;;;18.00;99.90;;;;;;4588879;19;20015;-36
2022/09/22 03:40:09;;;;;;;3.40;2.50;;;18.00;99.90;;;;;;4589759;19;20011;-36
2022/09/22 03:41:40;;;;;;;3.60;1.88;;;18.00;99.90;;;;;;4588472;19;20502;-36
2022/09/22 03:43:11;;;;;;;3.13;1.80;;;18.00;99.90;;;;;;4589476;19;20015;-35
2022/09/22 03:44:42;;;;;;;4.18;2.30;;;18.00;99.90;;;;;;4590209;19;20456;-36
2022/09/22 03:46:13;;;;;;;3.35;2.08;;;18.00;99.90;;;;;;4589429;19;20021;-36
2022/09/22 03:47:45;;;;;;;3.92;2.10;;;18.00;99.90;;;;;;4589389;19;20007;-36
2022/09/22 03:49:16;;;;;;;3.10;1.65;;;18.00;99.90;;;;;;4589232;19;20031;-35
2022/09/22 03:50:47;;;;;;;3.47;2.15;;;18.00;99.90;;;;;;4593185;19;20030;-36
2022/09/22 03:52:19;;;;;;;4.45;2.00;;;18.00;99.90;;;;;;4593978;19;20015;-35
2022/09/22 03:53:50;;;;;;;3.30;2.20;;;18.00;99.90;;;;;;4594017;19;20032;-35
2022/09/22 03:55:23;;;;;;;4.05;2.13;;;18.00;99.90;;;;;;4593259;19;20508;-36
2022/09/22 03:56:54;;;;;;;5.47;2.92;;;18.00;99.90;;;;;;4594434;19;20065;-36
2022/09/22 03:58:25;;;;;;;5.13;3.40;;;18.00;99.90;;;;;;4594177;19;20386;-35
2022/09/22 03:59:56;;;;;;;4.75;3.20;;;18.00;99.90;;;;;;4594243;19;20011;-35
2022/09/22 04:01:28;;;;;;;4.85;3.33;;;18.00;99.90;;;;;;4594632;19;20030;-35
2022/09/22 04:02:59;;;;;;;4.55;2.78;;;18.00;99.90;;;;;;4593439;19;20027;-35
2022/09/22 04:04:31;;;;;;;4.82;2.80;;;18.00;99.90;;;;;;4593880;19;20010;-35
2022/09/22 04:06:04;;;;;;;4.97;3.00;;;18.00;99.90;;;;;;4592880;19;20014;-35
2022/09/22 04:07:35;;;;;;;4.82;3.00;;;18.00;99.90;;;;;;4593856;19;20013;-35
2022/09/22 04:09:06;;;;;;;4.45;3.00;;;18.00;99.90;;;;;;4594034;19;20459;-35
2022/09/22 04:10:37;;;;;;;4.35;2.72;;;18.00;99.90;;;;;;4594143;19;20017;-35
2022/09/22 04:12:09;;;;;;;4.35;2.67;;;18.00;99.90;;;;;;4593192;19;20014;-35
2022/09/22 04:13:40;;;;;;;4.35;2.83;;;18.00;99.90;;;;;;4591643;19;20038;-34
2022/09/22 04:15:11;;;;;;;4.10;2.67;;;18.00;99.90;;;;;;4593465;19;20043;-34
2022/09/22 04:16:43;;;;;;;6.43;3.03;;;18.00;99.90;;;;;;4592074;19;20850;-35
2022/09/22 04:18:25;;;;;;;5.70;3.58;;;18.00;99.90;;;;;;4591887;19;20666;-35
2022/09/22 04:20:32;;;;;;;4.50;2.70;;;18.00;99.90;;;;;;4593092;19;20038;-35
2022/09/22 04:22:28;;;;;;;6.90;3.80;;;18.10;99.90;;;;;;4589014;19;20043;-35
2022/09/22 04:24:35;;;;;;;4.63;2.90;;;18.10;99.90;;;;;;4590447;19;20018;-35
2022/09/22 04:26:40;;;;;;;5.15;3.00;;;18.10;99.90;;;;;;4590269;19;20067;-35
2022/09/22 04:28:51;;;;;;;5.85;2.88;;;18.10;99.90;;;;;;4589899;19;20011;-34
2022/09/22 04:31:21;;;;;;;6.10;3.17;;;18.10;99.90;;;;;;4590427;19;20497;-35
2022/09/22 04:33:37;;;;;;;6.53;3.60;;;18.20;99.90;;;;;;4590416;19;20039;-35
2022/09/22 04:36:17;;;;;;;7.00;4.30;;;18.30;99.90;;;;;;4589689;19;20023;-35
2022/09/22 04:38:56;;;;;;;4.45;3.03;;;18.30;99.90;;;;;;4590382;19;20484;-35
2022/09/22 04:41:02;;;;;;;5.68;3.40;;;18.30;99.90;;;;;;4588013;19;20489;-35
2022/09/22 04:43:13;;;;;;;6.22;4.07;;;18.20;99.90;;;;;;4590228;19;20002;-34
2022/09/22 04:45:13;;;;;;;8.20;3.70;;;18.20;99.90;;;;;;4587210;19;20010;-35
2022/09/22 04:47:32;;;;;;;5.00;3.00;;;18.30;99.90;;;;;;4590521;19;20022;-35
2022/09/22 04:50:05;;;;;;;5.00;3.20;;;18.20;99.90;;;;;;4588430;19;20014;-35
2022/09/22 04:51:54;;;;;;;4.90;2.73;;;18.20;99.90;;;;;;3861142;19;14617235;-36
2022/09/22 04:53:26;;;;;;;4.78;2.55;;;18.20;99.90;;;;;;4610975;19;20018;-36
2022/09/22 04:54:58;;;;;;;4.07;2.78;;;18.20;99.90;;;;;;4611857;19;20006;-36
2022/09/22 04:56:33;;;;;;;4.35;2.85;;;18.10;99.90;;;;;;4612308;19;20010;-36
2022/09/22 04:58:06;;;;;;;4.25;2.63;;;18.20;99.90;;;;;;4612125;19;20014;-36
2022/09/22 04:59:42;;;;;;;4.78;3.70;;;18.20;99.90;;;;;;4611241;19;20070;-36
2022/09/22 05:01:17;;;;;;;5.78;3.15;;;18.10;99.90;;;;;;4610508;19;20018;-36
2022/09/22 05:02:50;;;;;;;8.60;4.30;;;18.10;99.90;;;;;;4612877;19;20011;-36
2022/09/22 05:04:23;;;;;;;7.95;4.60;;;18.10;99.90;;;;;;4611376;19;20384;-36
2022/09/22 05:05:56;;;;;;;9.30;6.97;;;18.10;99.90;;;;;;4612185;19;20017;-36
2022/09/22 05:07:27;;;;;;;12.45;9.02;;;18.10;99.90;;;;;;4610789;19;20011;-36
2022/09/22 05:08:59;;;;;;;10.77;8.27;;;18.10;99.90;;;;;;4611310;19;20018;-36
2022/09/22 05:10:33;;;;;;;13.98;10.52;;;18.10;99.90;;;;;;4612686;19;20014;-36
2022/09/22 05:12:05;;;;;;;19.08;13.18;;;18.10;99.90;;;;;;4611584;19;20082;-36
2022/09/22 05:13:39;;;;;;;15.75;11.23;;;18.10;99.90;;;;;;4611600;19;20018;-36
2022/09/22 05:15:12;;;;;;;13.57;9.85;;;18.10;99.90;;;;;;4612215;19;20014;-35
2022/09/22 05:16:45;;;;;;;13.25;10.18;;;17.00;99.90;;;;;;4613007;19;20369;-35
2022/09/22 05:18:16;;;;;;;11.18;8.48;;;15.50;99.90;;;;;;4611773;19;20050;-35
2022/09/22 05:19:47;;;;;;;10.77;8.52;;;14.80;99.90;;;;;;4609602;19;20413;-35
2022/09/22 05:21:18;;;;;;;8.10;6.32;;;14.40;99.90;;;;;;4611771;19;20041;-35
2022/09/22 05:22:49;;;;;;;8.05;5.45;;;14.30;99.90;;;;;;4611842;19;20074;-35
2022/09/22 05:24:21;;;;;;;5.88;4.30;;;14.20;99.90;;;;;;4611881;19;20478;-35
2022/09/22 05:25:52;;;;;;;6.75;5.10;;;14.10;99.90;;;;;;4609623;19;20022;-36
2022/09/22 05:27:23;;;;;;;6.53;4.80;;;14.00;99.90;;;;;;4611291;19;20007;-35
2022/09/22 05:28:54;;;;;;;7.32;4.68;;;14.00;99.90;;;;;;4611050;19;20022;-36
2022/09/22 05:30:26;;;;;;;6.47;5.33;;;14.00;99.90;;;;;;4611746;19;20023;-35
2022/09/22 05:31:57;;;;;;;8.68;5.65;;;14.00;99.90;;;;;;4610795;19;20018;-35
2022/09/22 05:33:31;;;;;;;6.27;4.43;;;14.00;99.90;;;;;;4610243;19;20010;-36
2022/09/22 05:35:03;;;;;;;5.55;4.10;;;14.00;99.90;;;;;;4607573;19;20024;-36
2022/09/22 05:36:35;;;;;;;;;;;13.90;99.90;;;;;;4611665;19;20015;-35
2022/09/22 05:38:20;;;;;;;6.07;4.23;;;14.00;99.90;;;;;;4611699;19;19911;-35
2022/09/22 05:40:07;;;;;;;5.40;4.20;;;13.90;99.90;;;;;;4612622;19;20078;-36
2022/09/22 05:41:38;;;;;;;8.37;6.33;;;13.90;99.90;;;;;;4610667;19;20022;-36
2022/09/22 05:43:09;;;;;;;7.45;5.30;;;13.90;99.90;;;;;;4611536;19;20017;-36
2022/09/22 05:44:40;;;;;;;8.88;5.90;;;13.90;99.90;;;;;;4610505;19;20045;-34
2022/09/22 05:46:11;;;;;;;10.35;7.18;;;13.90;99.90;;;;;;4613236;19;20359;-35
2022/09/22 05:47:43;;;;;;;8.65;5.60;;;13.80;99.90;;;;;;4610454;19;20028;-34
2022/09/22 05:49:14;;;;;;;6.22;3.83;;;13.80;99.90;;;;;;4610620;19;20005;-35
2022/09/22 05:50:45;;;;;;;6.40;4.53;;;13.90;99.90;;;;;;4609491;19;20022;-34
2022/09/22 05:52:16;;;;;;;6.32;4.25;;;13.90;99.90;;;;;;4611545;19;20010;-34
2022/09/22 05:53:48;;;;;;;5.53;4.07;;;13.90;99.90;;;;;;4611138;19;20018;-35
2022/09/22 05:55:19;;;;;;;5.38;3.60;;;13.90;99.90;;;;;;4610769;19;20010;-35
2022/09/22 05:56:50;;;;;;;5.45;3.97;;;14.00;99.90;;;;;;4610306;19;20471;-36
2022/09/22 05:58:22;;;;;;;6.70;4.00;;;13.90;99.90;;;;;;4611189;19;20029;-35
2022/09/22 05:59:53;;;;;;;6.87;4.67;;;14.00;99.90;;;;;;4610795;19;20018;-36
2022/09/22 06:01:28;;;;;;;6.13;4.15;;;14.00;99.90;;;;;;4609161;19;21450;-35
2022/09/22 06:03:06;;;;;;;6.30;3.40;;;14.00;99.90;;;;;;4594364;19;20011;-36
2022/09/22 06:04:37;;;;;;;4.35;3.40;;;14.00;99.90;;;;;;4590708;19;20101;-36
2022/09/22 06:06:08;;;;;;;5.20;3.78;;;14.00;99.90;;;;;;4591818;19;20010;-36
2022/09/22 06:07:40;;;;;;;4.88;3.42;;;14.00;99.90;;;;;;4592708;19;20055;-36
2022/09/22 06:09:11;;;;;;;5.43;3.38;;;14.00;99.90;;;;;;4591490;19;20007;-36
2022/09/22 06:10:44;;;;;;;4.75;3.30;;;14.00;99.90;;;;;;4591649;19;20538;-36
2022/09/22 06:12:16;;;;;;;4.97;3.13;;;14.00;99.90;;;;;;4592312;19;20027;-36
2022/09/22 06:13:50;;;;;;;4.78;3.55;;;14.00;99.90;;;;;;4590229;19;20018;-36
2022/09/22 06:15:21;;;;;;;5.00;3.07;;;14.00;99.90;;;;;;4590344;19;20505;-36
2022/09/22 06:16:53;;;;;;;5.47;3.80;;;14.00;99.90;;;;;;4590714;19;20010;-36
2022/09/22 06:18:25;;;;;;;4.23;3.17;;;14.00;99.90;;;;;;4593055;19;20014;-36
2022/09/22 06:19:57;;;;;;;4.00;2.70;;;13.90;99.90;;;;;;4592292;19;20373;-36
2022/09/22 06:21:28;;;;;;;4.47;3.10;;;14.00;99.90;;;;;;4592078;19;20011;-36
2022/09/22 06:22:59;;;;;;;4.30;3.00;;;14.00;99.90;;;;;;4592505;19;20505;-36
2022/09/22 06:24:31;;;;;;;5.50;3.30;;;14.00;99.90;;;;;;4591170;19;20102;-36
2022/09/22 06:26:02;;;;;;;4.70;3.00;;;14.00;99.90;;;;;;4590778;19;20011;-36
2022/09/22 06:27:33;;;;;;;4.60;3.00;;;13.90;99.90;;;;;;4591664;19;20355;-36
2022/09/22 06:29:05;;;;;;;5.55;3.35;;;14.00;99.90;;;;;;4592956;19;20033;-36
2022/09/22 06:30:38;;;;;;;6.23;2.90;;;13.90;99.90;;;;;;4591372;19;20015;-36
2022/09/22 06:32:10;;;;;;;7.00;3.77;;;13.90;99.90;;;;;;4591574;19;20021;-36
2022/09/22 06:33:47;;;;;;;5.07;3.65;;;13.90;99.90;;;;;;4591993;19;20021;-36
2022/09/22 06:35:18;;;;;;;6.10;4.20;;;13.90;99.90;;;;;;4593066;19;19995;-36
2022/09/22 06:36:50;;;;;;;5.97;4.53;;;13.90;99.90;;;;;;4591708;19;20014;-36
2022/09/22 06:38:35;;;;;;;5.97;3.67;;;13.90;99.90;;;;;;4591705;19;20472;-35
2022/09/22 06:40:22;;;;;;;4.73;3.40;;;13.90;99.90;;;;;;4591694;19;19998;-35
2022/09/22 06:42:09;;;;;;;4.50;3.10;;;13.90;99.90;;;;;;4591734;19;20010;-34
2022/09/22 06:45:50;;;;;;;4.57;2.90;;;13.90;99.90;;;;;;4592772;19;19914;-35
2022/09/22 06:47:22;;;;;;;7.00;4.07;;;13.90;99.90;;;;;;4591595;19;19998;-35
2022/09/22 06:48:57;;;;;;;8.87;5.03;;;13.90;99.90;;;;;;4591416;19;20073;-35
2022/09/22 06:50:31;;;;;;;6.17;3.67;;;13.90;99.90;;;;;;4591690;19;20477;-35
2022/09/22 06:52:04;;;;;;;6.57;4.20;;;13.90;99.90;;;;;;4591235;19;20047;-36
2022/09/22 06:53:35;;;;;;;6.07;3.67;;;13.90;99.90;;;;;;4591385;19;20073;-35
2022/09/22 06:55:06;;;;;;;6.60;3.40;;;13.90;99.90;;;;;;4591066;19;20016;-34
2022/09/22 06:56:41;;;;;;;6.85;3.72;;;13.90;99.90;;;;;;4591752;19;20007;-35
2022/09/22 06:58:13;;;;;;;4.33;2.87;;;13.90;99.90;;;;;;4592971;19;20003;-35
2022/09/22 06:59:47;;;;;;;4.57;3.20;;;13.90;99.90;;;;;;4591327;19;20058;-35
2022/09/22 07:01:18;;;;;;;4.20;2.83;;;13.90;99.90;;;;;;4591202;19;20020;-36
2022/09/22 07:02:49;;;;;;;4.68;3.17;;;13.90;99.90;;;;;;4591839;19;20006;-36
2022/09/22 07:04:22;;;;;;;4.47;3.10;;;13.90;99.90;;;;;;4593170;19;20010;-36
2022/09/22 07:06:01;;;;;;;4.70;3.03;;;13.90;99.90;;;;;;4592108;19;20023;-36
2022/09/22 07:07:32;;;;;;;4.40;2.87;;;13.90;99.90;;;;;;4591025;19;20413;-36
2022/09/22 07:09:04;;;;;;;4.47;3.10;;;13.90;99.90;;;;;;4591105;19;20401;-36
2022/09/22 07:10:36;;;;;;;4.90;2.70;;;13.90;99.90;;;;;;4591464;19;20332;-36
2022/09/22 07:12:08;;;;;;;3.50;2.67;;;14.10;99.90;;;;;;4591729;19;20019;-36
2022/09/22 07:13:40;;;;;;;4.05;2.10;;;14.60;99.90;;;;;;4591043;19;20019;-36
2022/09/22 07:15:12;;;;;;;4.83;2.23;;;15.10;99.90;;;;;;4589338;19;20094;-36
2022/09/22 07:16:43;;;;;;;5.67;2.97;;;15.50;99.90;;;;;;4590898;19;20010;-36
2022/09/22 07:18:15;;;;;;;5.03;2.47;;;15.80;99.90;;;;;;4591242;19;20039;-36
2022/09/22 07:19:47;;;;;;;4.90;2.10;;;16.00;99.90;;;;;;4591087;19;20086;-36
2022/09/22 07:21:53;;;;;;;3.88;2.33;;;16.20;99.90;;;;;;4591100;19;20033;-36
2022/09/22 07:23:19;;;;;;;3.30;2.20;;;16.30;99.90;;;;;;4590176;19;20010;-36
2022/09/22 07:24:51;;;;;;;5.43;2.45;;;16.50;99.90;;;;;;4591825;19;20077;-36
2022/09/22 07:26:25;;;;;;;4.88;2.40;;;16.60;99.90;;;;;;4590663;19;20014;-36
2022/09/22 07:27:56;;;;;;;3.40;2.22;;;16.70;99.90;;;;;;4591574;19;20010;-36
2022/09/22 07:29:28;;;;;;;5.38;3.55;;;16.70;99.90;;;;;;4591998;19;19998;-36
2022/09/22 07:31:22;;;;;;;4.28;2.60;;;16.80;99.90;;;;;;4589808;19;20447;-35
2022/09/22 07:33:04;;;;;;;3.72;2.25;;;16.90;99.90;;;;;;4591486;19;20010;-36
2022/09/22 07:34:48;;;;;;;5.32;2.22;;;16.90;99.90;;;;;;4588685;19;20006;-36
2022/09/22 07:36:26;;;;;;;2.95;2.00;;;17.00;99.90;;;;;;4589728;19;20015;-36
2022/09/22 07:38:05;;;;;;;3.63;2.55;;;17.00;99.90;;;;;;4591633;19;20009;-36
2022/09/22 10:55:17;;;;;;;1.40;0.82;;;18.30;99.90;;;;;;4591044;19;20019;-34
2022/09/22 10:56:49;;;;;;;;;;;18.40;99.90;;;;;;4590994;19;20503;-34
2022/09/22 10:58:45;;;;;;;1.05;0.82;;;18.40;99.90;;;;;;4589882;19;20372;-34
2022/09/22 11:00:23;;;;;;;1.35;0.75;;;18.40;99.90;;;;;;4589912;19;20438;-34
2022/09/22 11:02:03;;;;;;;1.60;0.98;;;18.50;99.90;;;;;;4589888;19;20017;-34
2022/09/22 11:03:48;;;;;;;2.10;0.90;;;18.40;99.90;;;;;;4589713;19;20400;-34
2022/09/22 11:13:33;;;;;;;0.90;0.70;;;18.30;99.90;;;;;;4590087;19;20018;-34
2022/09/22 11:15:24;;;;;;;0.85;0.50;;;18.30;99.90;;;;;;4589750;19;20015;-34
2022/09/22 11:17:16;;;;;;;0.90;0.60;;;18.30;99.90;;;;;;4589647;19;20018;-34
2022/09/22 11:19:13;;;;;;;0.57;0.43;;;18.20;99.90;;;;;;4589145;19;20009;-34
2022/09/22 11:20:50;;;;;;;0.50;0.50;;;18.20;99.90;;;;;;4589419;19;20018;-34
2022/09/22 11:22:22;;;;;;;0.57;0.40;;;18.10;99.90;;;;;;4589485;19;20018;-34
2022/09/22 11:24:08;;;;;;;0.43;0.40;;;18.10;99.90;;;;;;4589353;19;20410;-34
2022/09/22 11:26:15;;;;;;;0.77;0.40;;;18.10;99.90;;;;;;4589887;19;20014;-34
2022/09/22 11:28:02;;;;;;;1.10;0.75;;;18.20;99.90;;;;;;4589421;19;20015;-34
2022/09/22 13:38:23;;;;;;;2.05;0.93;;;18.50;99.90;;;;;;4558731;19;20033;-35
2022/09/22 13:39:54;;;;;;;0.73;0.50;;;18.50;99.90;;;;;;4590671;19;20010;-35
2022/09/22 13:41:28;;;;;;;0.95;0.60;;;17.60;99.90;;;;;;4593288;19;20014;-34
2022/09/22 13:43:04;;;;;;;0.90;0.50;;;16.90;99.90;;;;;;4593188;19;20022;-34
2022/09/22 13:44:36;;;;;;;1.70;0.80;;;16.60;99.90;;;;;;4592464;19;20042;-35
2022/09/22 13:46:33;;;;;;;1.52;0.73;;;16.60;99.90;;;;;;4593287;19;20034;-35
2022/09/22 13:48:10;;;;;;;8.60;5.15;;;16.50;99.90;;;;;;4591256;19;20034;-35
2022/09/22 13:49:48;;;;;;;3.08;1.67;;;16.50;99.90;;;;;;4591561;19;19994;-34
2022/09/22 13:51:26;;;;;;;1.05;0.60;;;16.50;99.90;;;;;;4590405;19;20027;-35
2022/09/22 13:53:01;;;;;;;4.45;2.50;;;16.50;99.90;;;;;;4590617;19;20633;-35
2022/09/22 13:54:34;;;;;;;2.85;1.17;;;16.50;99.90;;;;;;4591044;19;20011;-35
2022/09/22 13:56:05;;;;;;;1.17;0.70;;;16.50;99.90;;;;;;4590997;19;20014;-35
2022/09/22 13:57:36;;;;;;;1.30;0.80;;;16.50;99.90;;;;;;4591545;19;20041;-35
2022/09/22 13:59:08;;;;;;;3.72;2.00;;;16.50;99.90;;;;;;4590545;19;20022;-35
2022/09/22 14:01:01;;;;;;;2.95;1.23;;;16.50;99.90;;;;;;4591442;19;20022;-35
2022/09/22 14:02:33;;;;;;;3.35;1.50;;;16.50;99.90;;;;;;4591244;19;20007;-35